METAR Data
IDs: Format: Raw Decoded Include TAF

Data at: 0657 UTC 23 Oct 2018

METAR for:KSDF (Louisville Intl, KY, US)
Text:KSDF 230556Z 21006KT 10SM BKN250 11/02 A3019 RMK AO2 SLP221 T01060022 10150 20106 50005
Temperature: 10.6°C ( 51°F)
Dewpoint: 2.2°C ( 36°F) [RH = 56%]
Pressure (altimeter):30.19 inches Hg (1022.4 mb) [Sea level pressure: 1022.1 mb]
Winds:from the SSW (210 degrees) at 7 MPH (6 knots; 3.1 m/s)
Visibility:10 or more sm (16+ km)
Ceiling:25000 feet AGL
Clouds: broken clouds at 25000 feet AGL